sensor_id;sensor_type;location;lat;lon;timestamp;temperature;humidity
52459;DHT22;38372;52.902;6.024;2022-07-23T00:00:55;12.70;99.90
52459;DHT22;38372;52.902;6.024;2022-07-23T00:03:20;12.60;99.90
52459;DHT22;38372;52.902;6.024;2022-07-23T00:05:46;12.60;99.90
52459;DHT22;38372;52.902;6.024;2022-07-23T00:08:12;12.60;99.90
52459;DHT22;38372;52.902;6.024;2022-07-23T00:10:38;12.50;99.90
52459;DHT22;38372;52.902;6.024;2022-07-23T00:13:04;12.50;99.90
52459;DHT22;38372;52.902;6.024;2022-07-23T00:15:30;12.50;99.90
52459;DHT22;38372;52.902;6.024;2022-07-23T00:17:56;12.40;99.90
52459;DHT22;38372;52.902;6.024;2022-07-23T00:20:22;12.40;99.90
52459;DHT22;38372;52.902;6.024;2022-07-23T00:22:53;12.40;99.90
52459;DHT22;38372;52.902;6.024;2022-07-23T00:25:20;12.40;99.90
52459;DHT22;38372;52.902;6.024;2022-07-23T00:27:46;12.40;99.90
52459;DHT22;38372;52.902;6.024;2022-07-23T00:30:12;12.30;99.90
52459;DHT22;38372;52.902;6.024;2022-07-23T00:32:48;12.30;99.90
52459;DHT22;38372;52.902;6.024;2022-07-23T00:35:16;12.30;99.90
52459;DHT22;38372;52.902;6.024;2022-07-23T00:37:42;12.30;99.90
52459;DHT22;38372;52.902;6.024;2022-07-23T00:40:09;12.30;99.90
52459;DHT22;38372;52.902;6.024;2022-07-23T00:42:35;12.20;99.90
52459;DHT22;38372;52.902;6.024;2022-07-23T00:45:01;12.20;99.90
52459;DHT22;38372;52.902;6.024;2022-07-23T00:47:27;12.20;99.90
52459;DHT22;38372;52.902;6.024;2022-07-23T00:49:53;12.20;99.90
52459;DHT22;38372;52.902;6.024;2022-07-23T00:52:19;12.20;99.90
52459;DHT22;38372;52.902;6.024;2022-07-23T00:54:45;12.10;99.90
52459;DHT22;38372;52.902;6.024;2022-07-23T00:57:11;12.10;99.90
52459;DHT22;38372;52.902;6.024;2022-07-23T00:59:39;12.10;99.90
52459;DHT22;38372;52.902;6.024;2022-07-23T01:02:05;12.10;99.90
52459;DHT22;38372;52.902;6.024;2022-07-23T01:04:31;12.10;99.90
52459;DHT22;38372;52.902;6.024;2022-07-23T01:06:57;12.10;99.90
52459;DHT22;38372;52.902;6.024;2022-07-23T01:09:23;12.20;99.90
52459;DHT22;38372;52.902;6.024;2022-07-23T01:11:50;12.20;99.90
52459;DHT22;38372;52.902;6.024;2022-07-23T01:14:17;12.10;99.90
52459;DHT22;38372;52.902;6.024;2022-07-23T01:16:45;12.10;99.90
52459;DHT22;38372;52.902;6.024;2022-07-23T01:19:12;12.20;99.90
52459;DHT22;38372;52.902;6.024;2022-07-23T01:21:41;12.20;99.90
52459;DHT22;38372;52.902;6.024;2022-07-23T01:24:08;12.20;99.90
52459;DHT22;38372;52.902;6.024;2022-07-23T01:26:35;12.20;99.90
52459;DHT22;38372;52.902;6.024;2022-07-23T01:29:01;12.20;99.90
52459;DHT22;38372;52.902;6.024;2022-07-23T01:31:27;12.30;99.90
52459;DHT22;38372;52.902;6.024;2022-07-23T01:33:53;12.30;99.90
52459;DHT22;38372;52.902;6.024;2022-07-23T01:36:19;12.20;99.90
52459;DHT22;38372;52.902;6.024;2022-07-23T01:38:45;12.30;99.90
52459;DHT22;38372;52.902;6.024;2022-07-23T01:41:11;12.20;99.90
52459;DHT22;38372;52.902;6.024;2022-07-23T01:43:37;12.20;99.90
52459;DHT22;38372;52.902;6.024;2022-07-23T01:46:03;12.20;99.90
52459;DHT22;38372;52.902;6.024;2022-07-23T01:48:29;12.20;99.90
52459;DHT22;38372;52.902;6.024;2022-07-23T01:50:55;12.20;99.90
52459;DHT22;38372;52.902;6.024;2022-07-23T01:53:21;12.10;99.90
52459;DHT22;38372;52.902;6.024;2022-07-23T01:55:47;12.20;99.90
52459;DHT22;38372;52.902;6.024;2022-07-23T01:58:13;12.10;99.90
52459;DHT22;38372;52.902;6.024;2022-07-23T02:00:39;12.10;99.90
52459;DHT22;38372;52.902;6.024;2022-07-23T02:03:05;12.10;99.90
52459;DHT22;38372;52.902;6.024;2022-07-23T02:05:31;12.00;99.90
52459;DHT22;38372;52.902;6.024;2022-07-23T02:07:58;12.00;99.90
52459;DHT22;38372;52.902;6.024;2022-07-23T02:10:25;12.00;99.90
52459;DHT22;38372;52.902;6.024;2022-07-23T02:12:51;11.90;99.90
52459;DHT22;38372;52.902;6.024;2022-07-23T02:15:17;11.80;99.90
52459;DHT22;38372;52.902;6.024;2022-07-23T02:17:43;11.80;99.90
52459;DHT22;38372;52.902;6.024;2022-07-23T02:20:10;11.80;99.90
52459;DHT22;38372;52.902;6.024;2022-07-23T02:22:38;11.70;99.90
52459;DHT22;38372;52.902;6.024;2022-07-23T02:25:05;11.60;99.90
52459;DHT22;38372;52.902;6.024;2022-07-23T02:27:31;11.60;99.90
52459;DHT22;38372;52.902;6.024;2022-07-23T02:29:57;11.60;99.90
52459;DHT22;38372;52.902;6.024;2022-07-23T02:32:24;11.50;99.90
52459;DHT22;38372;52.902;6.024;2022-07-23T02:34:50;11.50;99.90
52459;DHT22;38372;52.902;6.024;2022-07-23T02:37:16;11.50;99.90
52459;DHT22;38372;52.902;6.024;2022-07-23T02:39:42;11.40;99.90
52459;DHT22;38372;52.902;6.024;2022-07-23T02:42:08;11.40;99.90
52459;DHT22;38372;52.902;6.024;2022-07-23T02:44:34;11.30;99.90
52459;DHT22;38372;52.902;6.024;2022-07-23T02:47:01;11.30;99.90
52459;DHT22;38372;52.902;6.024;2022-07-23T02:49:27;11.30;99.90
52459;DHT22;38372;52.902;6.024;2022-07-23T02:51:53;11.30;99.90
52459;DHT22;38372;52.902;6.024;2022-07-23T02:54:19;11.20;99.90
52459;DHT22;38372;52.902;6.024;2022-07-23T02:56:45;11.20;99.90
52459;DHT22;38372;52.902;6.024;2022-07-23T02:59:11;11.10;99.90
52459;DHT22;38372;52.902;6.024;2022-07-23T03:01:37;11.20;99.90
52459;DHT22;38372;52.902;6.024;2022-07-23T03:04:03;11.10;99.90
52459;DHT22;38372;52.902;6.024;2022-07-23T03:06:29;11.10;99.90
52459;DHT22;38372;52.902;6.024;2022-07-23T03:08:55;11.10;99.90
52459;DHT22;38372;52.902;6.024;2022-07-23T03:11:21;11.10;99.90
52459;DHT22;38372;52.902;6.024;2022-07-23T03:13:47;11.00;99.90
52459;DHT22;38372;52.902;6.024;2022-07-23T03:16:13;11.00;99.90
52459;DHT22;38372;52.902;6.024;2022-07-23T03:18:39;11.00;99.90
52459;DHT22;38372;52.902;6.024;2022-07-23T03:21:05;10.90;99.90
52459;DHT22;38372;52.902;6.024;2022-07-23T03:23:31;10.90;99.90
52459;DHT22;38372;52.902;6.024;2022-07-23T03:25:56;10.80;99.90
52459;DHT22;38372;52.902;6.024;2022-07-23T03:28:22;10.80;99.90
52459;DHT22;38372;52.902;6.024;2022-07-23T03:30:48;10.80;99.90
52459;DHT22;38372;52.902;6.024;2022-07-23T03:33:15;10.80;99.90
52459;DHT22;38372;52.902;6.024;2022-07-23T03:35:43;10.80;99.90
52459;DHT22;38372;52.902;6.024;2022-07-23T03:38:09;10.70;99.90
52459;DHT22;38372;52.902;6.024;2022-07-23T03:40:35;10.70;99.90
52459;DHT22;38372;52.902;6.024;2022-07-23T03:43:01;10.70;99.90
52459;DHT22;38372;52.902;6.024;2022-07-23T03:45:27;10.70;99.90
52459;DHT22;38372;52.902;6.024;2022-07-23T03:47:53;10.60;99.90
52459;DHT22;38372;52.902;6.024;2022-07-23T03:50:19;10.60;99.90
52459;DHT22;38372;52.902;6.024;2022-07-23T03:52:45;10.60;99.90
52459;DHT22;38372;52.902;6.024;2022-07-23T03:55:11;10.50;99.90
52459;DHT22;38372;52.902;6.024;2022-07-23T03:57:37;10.50;99.90
52459;DHT22;38372;52.902;6.024;2022-07-23T04:00:05;10.50;99.90
52459;DHT22;38372;52.902;6.024;2022-07-23T04:02:33;10.50;99.90
52459;DHT22;38372;52.902;6.024;2022-07-23T04:04:58;10.50;99.90
52459;DHT22;38372;52.902;6.024;2022-07-23T04:07:25;10.50;99.90
52459;DHT22;38372;52.902;6.024;2022-07-23T04:09:52;10.60;99.90
52459;DHT22;38372;52.902;6.024;2022-07-23T04:12:18;10.60;99.90
52459;DHT22;38372;52.902;6.024;2022-07-23T04:14:44;10.60;99.90
52459;DHT22;38372;52.902;6.024;2022-07-23T04:17:10;10.60;99.90
52459;DHT22;38372;52.902;6.024;2022-07-23T04:19:36;10.70;99.90
52459;DHT22;38372;52.902;6.024;2022-07-23T04:22:06;10.70;99.90
52459;DHT22;38372;52.902;6.024;2022-07-23T04:24:32;10.80;99.90
52459;DHT22;38372;52.902;6.024;2022-07-23T04:26:58;10.80;99.90
52459;DHT22;38372;52.902;6.024;2022-07-23T04:29:24;10.80;99.90
52459;DHT22;38372;52.902;6.024;2022-07-23T04:31:51;10.90;99.90
52459;DHT22;38372;52.902;6.024;2022-07-23T04:34:17;10.90;99.90
52459;DHT22;38372;52.902;6.024;2022-07-23T04:36:43;10.90;99.90
52459;DHT22;38372;52.902;6.024;2022-07-23T04:39:08;11.00;99.90
52459;DHT22;38372;52.902;6.024;2022-07-23T04:41:34;11.10;99.90
52459;DHT22;38372;52.902;6.024;2022-07-23T04:44:01;11.10;99.90
52459;DHT22;38372;52.902;6.024;2022-07-23T04:46:27;11.20;99.90
52459;DHT22;38372;52.902;6.024;2022-07-23T04:48:53;11.30;99.90
52459;DHT22;38372;52.902;6.024;2022-07-23T04:51:20;11.40;99.90
52459;DHT22;38372;52.902;6.024;2022-07-23T04:53:46;11.50;99.90
52459;DHT22;38372;52.902;6.024;2022-07-23T04:56:12;11.50;99.90
52459;DHT22;38372;52.902;6.024;2022-07-23T04:58:38;11.60;99.90
52459;DHT22;38372;52.902;6.024;2022-07-23T05:01:04;11.70;99.90
52459;DHT22;38372;52.902;6.024;2022-07-23T05:03:30;11.80;99.90
52459;DHT22;38372;52.902;6.024;2022-07-23T05:05:56;11.80;99.90
52459;DHT22;38372;52.902;6.024;2022-07-23T05:08:22;12.00;99.90
52459;DHT22;38372;52.902;6.024;2022-07-23T05:10:48;12.10;99.90
52459;DHT22;38372;52.902;6.024;2022-07-23T05:13:15;12.20;99.90
52459;DHT22;38372;52.902;6.024;2022-07-23T05:15:42;12.30;99.90
52459;DHT22;38372;52.902;6.024;2022-07-23T05:18:08;12.40;99.90
52459;DHT22;38372;52.902;6.024;2022-07-23T05:20:34;12.50;99.90
52459;DHT22;38372;52.902;6.024;2022-07-23T05:23:00;12.60;99.90
52459;DHT22;38372;52.902;6.024;2022-07-23T05:25:26;12.70;99.90
52459;DHT22;38372;52.902;6.024;2022-07-23T05:27:52;12.90;99.90
52459;DHT22;38372;52.902;6.024;2022-07-23T05:30:18;13.00;99.90
52459;DHT22;38372;52.902;6.024;2022-07-23T05:32:44;13.10;99.90
52459;DHT22;38372;52.902;6.024;2022-07-23T05:35:10;13.20;99.90
52459;DHT22;38372;52.902;6.024;2022-07-23T05:37:36;13.40;99.90
52459;DHT22;38372;52.902;6.024;2022-07-23T05:40:04;13.50;99.90
52459;DHT22;38372;52.902;6.024;2022-07-23T05:42:34;13.60;99.90
52459;DHT22;38372;52.902;6.024;2022-07-23T05:45:00;13.80;99.90
52459;DHT22;38372;52.902;6.024;2022-07-23T05:47:26;13.90;99.90
52459;DHT22;38372;52.902;6.024;2022-07-23T05:49:52;14.00;99.90
52459;DHT22;38372;52.902;6.024;2022-07-23T05:52:18;14.20;99.90
52459;DHT22;38372;52.902;6.024;2022-07-23T05:54:44;14.30;99.90
52459;DHT22;38372;52.902;6.024;2022-07-23T05:57:10;14.40;99.90
52459;DHT22;38372;52.902;6.024;2022-07-23T05:59:36;14.50;99.90
52459;DHT22;38372;52.902;6.024;2022-07-23T06:02:02;14.60;99.90
52459;DHT22;38372;52.902;6.024;2022-07-23T06:04:29;14.80;99.90
52459;DHT22;38372;52.902;6.024;2022-07-23T06:06:55;14.90;99.90
52459;DHT22;38372;52.902;6.024;2022-07-23T06:09:21;15.00;99.90
52459;DHT22;38372;52.902;6.024;2022-07-23T06:11:47;15.10;99.90
52459;DHT22;38372;52.902;6.024;2022-07-23T06:14:13;15.20;99.90
52459;DHT22;38372;52.902;6.024;2022-07-23T06:16:39;15.40;99.90
52459;DHT22;38372;52.902;6.024;2022-07-23T06:19:04;15.50;99.90
52459;DHT22;38372;52.902;6.024;2022-07-23T06:21:30;15.70;99.90
52459;DHT22;38372;52.902;6.024;2022-07-23T06:23:56;15.80;99.90
52459;DHT22;38372;52.902;6.024;2022-07-23T06:26:23;15.90;99.90
52459;DHT22;38372;52.902;6.024;2022-07-23T06:28:49;16.00;99.90
52459;DHT22;38372;52.902;6.024;2022-07-23T06:31:19;16.10;99.90
52459;DHT22;38372;52.902;6.024;2022-07-23T06:33:45;16.30;99.90
52459;DHT22;38372;52.902;6.024;2022-07-23T06:36:11;16.60;99.90
52459;DHT22;38372;52.902;6.024;2022-07-23T06:38:37;16.70;99.90
52459;DHT22;38372;52.902;6.024;2022-07-23T06:41:02;16.90;99.90
52459;DHT22;38372;52.902;6.024;2022-07-23T06:43:30;17.10;99.90
52459;DHT22;38372;52.902;6.024;2022-07-23T06:45:56;17.30;99.90
52459;DHT22;38372;52.902;6.024;2022-07-23T06:48:22;17.50;99.90
52459;DHT22;38372;52.902;6.024;2022-07-23T06:50:48;17.80;99.90
52459;DHT22;38372;52.902;6.024;2022-07-23T06:53:14;18.00;99.90
52459;DHT22;38372;52.902;6.024;2022-07-23T06:55:40;18.10;99.90
52459;DHT22;38372;52.902;6.024;2022-07-23T06:58:05;18.20;99.90
52459;DHT22;38372;52.902;6.024;2022-07-23T07:00:31;18.40;99.90
52459;DHT22;38372;52.902;6.024;2022-07-23T07:02:58;18.60;99.90
52459;DHT22;38372;52.902;6.024;2022-07-23T07:05:24;18.80;99.90
52459;DHT22;38372;52.902;6.024;2022-07-23T07:07:54;18.80;99.90
52459;DHT22;38372;52.902;6.024;2022-07-23T07:10:20;18.90;99.90
52459;DHT22;38372;52.902;6.024;2022-07-23T07:12:46;19.00;99.90
52459;DHT22;38372;52.902;6.024;2022-07-23T07:15:12;19.10;99.90
52459;DHT22;38372;52.902;6.024;2022-07-23T07:17:38;19.00;99.90
52459;DHT22;38372;52.902;6.024;2022-07-23T07:20:05;18.90;99.90
52459;DHT22;38372;52.902;6.024;2022-07-23T07:22:31;18.90;99.90
52459;DHT22;38372;52.902;6.024;2022-07-23T07:24:57;19.00;99.90
52459;DHT22;38372;52.902;6.024;2022-07-23T07:27:23;19.10;99.90
52459;DHT22;38372;52.902;6.024;2022-07-23T07:29:49;19.30;99.90
52459;DHT22;38372;52.902;6.024;2022-07-23T07:32:15;19.50;99.90
52459;DHT22;38372;52.902;6.024;2022-07-23T07:34:40;19.90;99.90
52459;DHT22;38372;52.902;6.024;2022-07-23T07:37:06;20.30;99.90
52459;DHT22;38372;52.902;6.024;2022-07-23T07:39:32;20.40;99.90
52459;DHT22;38372;52.902;6.024;2022-07-23T07:41:58;20.40;99.90
52459;DHT22;38372;52.902;6.024;2022-07-23T07:44:24;20.20;99.90
52459;DHT22;38372;52.902;6.024;2022-07-23T07:46:49;20.20;99.90
52459;DHT22;38372;52.902;6.024;2022-07-23T07:49:15;20.30;99.90
52459;DHT22;38372;52.902;6.024;2022-07-23T07:51:45;20.50;99.90
52459;DHT22;38372;52.902;6.024;2022-07-23T07:54:11;20.50;99.90
52459;DHT22;38372;52.902;6.024;2022-07-23T07:56:37;20.70;99.90
52459;DHT22;38372;52.902;6.024;2022-07-23T07:59:03;20.90;99.90
52459;DHT22;38372;52.902;6.024;2022-07-23T08:01:29;21.30;99.90
52459;DHT22;38372;52.902;6.024;2022-07-23T08:03:55;21.40;99.90
52459;DHT22;38372;52.902;6.024;2022-07-23T08:06:21;21.50;99.90
52459;DHT22;38372;52.902;6.024;2022-07-23T08:08:47;21.60;99.90
52459;DHT22;38372;52.902;6.024;2022-07-23T08:11:12;21.80;99.90
52459;DHT22;38372;52.902;6.024;2022-07-23T08:13:38;22.10;99.90
52459;DHT22;38372;52.902;6.024;2022-07-23T08:16:04;22.30;99.90
52459;DHT22;38372;52.902;6.024;2022-07-23T08:18:30;22.10;99.90
52459;DHT22;38372;52.902;6.024;2022-07-23T08:20:56;21.70;99.90
52459;DHT22;38372;52.902;6.024;2022-07-23T08:23:22;21.40;99.90
52459;DHT22;38372;52.902;6.024;2022-07-23T08:25:48;21.10;99.90
52459;DHT22;38372;52.902;6.024;2022-07-23T08:28:14;20.90;99.90
52459;DHT22;38372;52.902;6.024;2022-07-23T08:30:42;20.60;99.90
52459;DHT22;38372;52.902;6.024;2022-07-23T08:33:10;20.40;99.90
52459;DHT22;38372;52.902;6.024;2022-07-23T08:35:46;20.20;99.90
52459;DHT22;38372;52.902;6.024;2022-07-23T08:38:14;20.00;99.90
52459;DHT22;38372;52.902;6.024;2022-07-23T08:40:43;19.90;99.90
52459;DHT22;38372;52.902;6.024;2022-07-23T08:43:15;19.90;99.90
52459;DHT22;38372;52.902;6.024;2022-07-23T08:45:46;20.00;99.90
52459;DHT22;38372;52.902;6.024;2022-07-23T08:48:20;20.20;99.90
52459;DHT22;38372;52.902;6.024;2022-07-23T08:50:49;20.40;99.90
52459;DHT22;38372;52.902;6.024;2022-07-23T08:53:16;20.30;99.90
52459;DHT22;38372;52.902;6.024;2022-07-23T08:55:47;20.40;99.90
52459;DHT22;38372;52.902;6.024;2022-07-23T08:58:14;20.50;99.90
52459;DHT22;38372;52.902;6.024;2022-07-23T09:00:40;20.50;99.90
52459;DHT22;38372;52.902;6.024;2022-07-23T09:03:18;20.40;99.90
52459;DHT22;38372;52.902;6.024;2022-07-23T09:05:44;20.40;99.90
52459;DHT22;38372;52.902;6.024;2022-07-23T09:08:16;20.30;99.90
52459;DHT22;38372;52.902;6.024;2022-07-23T09:10:56;20.30;99.90
52459;DHT22;38372;52.902;6.024;2022-07-23T09:15:58;20.70;99.90
52459;DHT22;38372;52.902;6.024;2022-07-23T09:18:30;20.90;99.90
52459;DHT22;38372;52.902;6.024;2022-07-23T09:23:40;21.00;99.90
52459;DHT22;38372;52.902;6.024;2022-07-23T09:29:05;21.00;99.90
52459;DHT22;38372;52.902;6.024;2022-07-23T09:31:52;21.00;99.90
52459;DHT22;38372;52.902;6.024;2022-07-23T09:36:48;21.30;99.90
52459;DHT22;38372;52.902;6.024;2022-07-23T09:39:16;21.50;99.90
52459;DHT22;38372;52.902;6.024;2022-07-23T09:41:46;21.70;99.90
52459;DHT22;38372;52.902;6.024;2022-07-23T09:44:15;21.70;99.90
52459;DHT22;38372;52.902;6.024;2022-07-23T09:46:42;21.70;99.90
52459;DHT22;38372;52.902;6.024;2022-07-23T09:49:22;21.70;99.90
52459;DHT22;38372;52.902;6.024;2022-07-23T09:54:22;22.00;99.90
52459;DHT22;38372;52.902;6.024;2022-07-23T09:56:49;22.20;99.90
52459;DHT22;38372;52.902;6.024;2022-07-23T09:59:17;22.40;99.90
52459;DHT22;38372;52.902;6.024;2022-07-23T10:01:44;22.60;99.90
52459;DHT22;38372;52.902;6.024;2022-07-23T10:04:11;22.60;99.90
52459;DHT22;38372;52.902;6.024;2022-07-23T10:06:39;22.40;99.90
52459;DHT22;38372;52.902;6.024;2022-07-23T10:09:07;22.20;99.90
52459;DHT22;38372;52.902;6.024;2022-07-23T10:11:34;22.40;99.90
52459;DHT22;38372;52.902;6.024;2022-07-23T10:14:01;22.50;99.90
52459;DHT22;38372;52.902;6.024;2022-07-23T10:16:30;22.50;99.90
52459;DHT22;38372;52.902;6.024;2022-07-23T10:18:56;22.40;99.90
52459;DHT22;38372;52.902;6.024;2022-07-23T10:21:37;22.50;99.90
52459;DHT22;38372;52.902;6.024;2022-07-23T10:27:19;22.20;99.90
52459;DHT22;38372;52.902;6.024;2022-07-23T10:35:52;22.10;99.90
52459;DHT22;38372;52.902;6.024;2022-07-23T10:38:24;22.20;99.90
52459;DHT22;38372;52.902;6.024;2022-07-23T10:41:04;22.30;99.90
52459;DHT22;38372;52.902;6.024;2022-07-23T10:43:31;22.20;99.90
52459;DHT22;38372;52.902;6.024;2022-07-23T10:46:21;22.20;99.90
52459;DHT22;38372;52.902;6.024;2022-07-23T10:49:26;22.40;99.90
52459;DHT22;38372;52.902;6.024;2022-07-23T10:57:11;23.30;99.90
52459;DHT22;38372;52.902;6.024;2022-07-23T11:02:39;23.90;99.90
52459;DHT22;38372;52.902;6.024;2022-07-23T11:05:08;23.70;99.40
52459;DHT22;38372;52.902;6.024;2022-07-23T11:07:35;23.60;99.60
52459;DHT22;38372;52.902;6.024;2022-07-23T11:10:03;23.50;99.40
52459;DHT22;38372;52.902;6.024;2022-07-23T11:15:09;23.40;98.00
52459;DHT22;38372;52.902;6.024;2022-07-23T11:18:00;23.40;98.50
52459;DHT22;38372;52.902;6.024;2022-07-23T11:20:27;23.40;99.90
52459;DHT22;38372;52.902;6.024;2022-07-23T11:22:57;23.50;99.90
52459;DHT22;38372;52.902;6.024;2022-07-23T11:28:16;23.80;99.50
52459;DHT22;38372;52.902;6.024;2022-07-23T11:30:44;23.50;98.20
52459;DHT22;38372;52.902;6.024;2022-07-23T11:35:39;23.70;99.00
52459;DHT22;38372;52.902;6.024;2022-07-23T11:38:16;23.90;98.00
52459;DHT22;38372;52.902;6.024;2022-07-23T11:40:49;23.80;96.80
52459;DHT22;38372;52.902;6.024;2022-07-23T11:43:16;23.50;98.20
52459;DHT22;38372;52.902;6.024;2022-07-23T11:45:48;23.30;99.30
52459;DHT22;38372;52.902;6.024;2022-07-23T11:48:21;23.30;98.60
52459;DHT22;38372;52.902;6.024;2022-07-23T11:50:48;23.40;99.30
52459;DHT22;38372;52.902;6.024;2022-07-23T11:53:25;23.60;99.20
52459;DHT22;38372;52.902;6.024;2022-07-23T11:55:52;23.90;99.80
52459;DHT22;38372;52.902;6.024;2022-07-23T11:58:18;24.00;98.00
52459;DHT22;38372;52.902;6.024;2022-07-23T12:00:44;24.00;98.40
52459;DHT22;38372;52.902;6.024;2022-07-23T12:03:10;24.20;98.10
52459;DHT22;38372;52.902;6.024;2022-07-23T12:05:37;24.20;98.30
52459;DHT22;38372;52.902;6.024;2022-07-23T12:08:06;23.90;98.00
52459;DHT22;38372;52.902;6.024;2022-07-23T12:10:38;23.80;97.10
52459;DHT22;38372;52.902;6.024;2022-07-23T12:13:06;23.80;97.90
52459;DHT22;38372;52.902;6.024;2022-07-23T12:15:35;23.90;96.30
52459;DHT22;38372;52.902;6.024;2022-07-23T12:18:06;23.80;96.10
52459;DHT22;38372;52.902;6.024;2022-07-23T12:20:38;23.70;97.20
52459;DHT22;38372;52.902;6.024;2022-07-23T12:23:06;23.70;97.60
52459;DHT22;38372;52.902;6.024;2022-07-23T12:25:40;23.60;97.90
52459;DHT22;38372;52.902;6.024;2022-07-23T12:28:15;23.60;97.60
52459;DHT22;38372;52.902;6.024;2022-07-23T12:30:49;23.60;99.30
52459;DHT22;38372;52.902;6.024;2022-07-23T12:35:52;23.80;98.30
52459;DHT22;38372;52.902;6.024;2022-07-23T12:38:20;23.70;99.90
52459;DHT22;38372;52.902;6.024;2022-07-23T12:41:08;23.80;99.20
52459;DHT22;38372;52.902;6.024;2022-07-23T12:43:37;23.80;97.30
52459;DHT22;38372;52.902;6.024;2022-07-23T12:46:08;23.60;96.90
52459;DHT22;38372;52.902;6.024;2022-07-23T12:48:37;23.50;98.60
52459;DHT22;38372;52.902;6.024;2022-07-23T12:51:07;23.50;99.00
52459;DHT22;38372;52.902;6.024;2022-07-23T12:56:17;23.40;99.00
52459;DHT22;38372;52.902;6.024;2022-07-23T13:01:26;23.30;99.80
52459;DHT22;38372;52.902;6.024;2022-07-23T13:04:01;23.50;99.90
52459;DHT22;38372;52.902;6.024;2022-07-23T13:06:50;23.80;98.90
52459;DHT22;38372;52.902;6.024;2022-07-23T13:09:21;23.80;97.90
52459;DHT22;38372;52.902;6.024;2022-07-23T13:11:49;23.60;98.00
52459;DHT22;38372;52.902;6.024;2022-07-23T13:14:16;23.30;98.00
52459;DHT22;38372;52.902;6.024;2022-07-23T13:16:44;23.10;98.50
52459;DHT22;38372;52.902;6.024;2022-07-23T13:19:10;22.80;98.90
52459;DHT22;38372;52.902;6.024;2022-07-23T13:21:36;22.70;99.90
52459;DHT22;38372;52.902;6.024;2022-07-23T13:24:02;22.70;99.90
52459;DHT22;38372;52.902;6.024;2022-07-23T13:26:27;22.80;99.90
52459;DHT22;38372;52.902;6.024;2022-07-23T13:28:54;22.90;99.90
52459;DHT22;38372;52.902;6.024;2022-07-23T13:31:20;23.00;99.90
52459;DHT22;38372;52.902;6.024;2022-07-23T13:33:46;23.30;99.90
52459;DHT22;38372;52.902;6.024;2022-07-23T13:36:12;23.40;99.90
52459;DHT22;38372;52.902;6.024;2022-07-23T13:38:38;23.50;99.90
52459;DHT22;38372;52.902;6.024;2022-07-23T13:41:05;23.70;99.90
52459;DHT22;38372;52.902;6.024;2022-07-23T13:43:31;23.80;99.90
52459;DHT22;38372;52.902;6.024;2022-07-23T13:45:57;23.80;99.30
52459;DHT22;38372;52.902;6.024;2022-07-23T13:48:23;23.70;99.00
52459;DHT22;38372;52.902;6.024;2022-07-23T13:50:50;23.80;98.80
52459;DHT22;38372;52.902;6.024;2022-07-23T13:53:21;23.80;98.10
52459;DHT22;38372;52.902;6.024;2022-07-23T13:55:49;23.60;98.70
52459;DHT22;38372;52.902;6.024;2022-07-23T13:58:15;23.70;99.90
52459;DHT22;38372;52.902;6.024;2022-07-23T14:00:45;23.90;99.90
52459;DHT22;38372;52.902;6.024;2022-07-23T14:03:11;24.10;97.60
52459;DHT22;38372;52.902;6.024;2022-07-23T14:05:37;24.40;96.40
52459;DHT22;38372;52.902;6.024;2022-07-23T14:08:04;24.60;96.90
52459;DHT22;38372;52.902;6.024;2022-07-23T14:10:32;24.80;97.30
52459;DHT22;38372;52.902;6.024;2022-07-23T14:13:00;24.90;97.30
52459;DHT22;38372;52.902;6.024;2022-07-23T14:15:29;25.10;95.60
52459;DHT22;38372;52.902;6.024;2022-07-23T14:17:56;24.90;95.20
52459;DHT22;38372;52.902;6.024;2022-07-23T14:20:22;25.00;95.90
52459;DHT22;38372;52.902;6.024;2022-07-23T14:22:48;24.70;96.30
52459;DHT22;38372;52.902;6.024;2022-07-23T14:25:16;24.40;96.00
52459;DHT22;38372;52.902;6.024;2022-07-23T14:27:42;24.30;96.80
52459;DHT22;38372;52.902;6.024;2022-07-23T14:30:09;24.50;96.40
52459;DHT22;38372;52.902;6.024;2022-07-23T14:32:35;24.60;95.40
52459;DHT22;38372;52.902;6.024;2022-07-23T14:35:02;24.20;94.40
52459;DHT22;38372;52.902;6.024;2022-07-23T14:37:29;23.90;95.70
52459;DHT22;38372;52.902;6.024;2022-07-23T14:39:55;23.60;96.70
52459;DHT22;38372;52.902;6.024;2022-07-23T14:42:20;23.50;97.00
52459;DHT22;38372;52.902;6.024;2022-07-23T14:44:46;23.30;96.60
52459;DHT22;38372;52.902;6.024;2022-07-23T14:47:12;23.20;98.00
52459;DHT22;38372;52.902;6.024;2022-07-23T14:49:38;23.30;98.00
52459;DHT22;38372;52.902;6.024;2022-07-23T14:52:05;23.40;97.50
52459;DHT22;38372;52.902;6.024;2022-07-23T14:54:31;23.40;98.10
52459;DHT22;38372;52.902;6.024;2022-07-23T14:56:59;23.40;97.90
52459;DHT22;38372;52.902;6.024;2022-07-23T14:59:27;23.40;98.10
52459;DHT22;38372;52.902;6.024;2022-07-23T15:01:53;23.40;98.50
52459;DHT22;38372;52.902;6.024;2022-07-23T15:04:19;23.40;97.90
52459;DHT22;38372;52.902;6.024;2022-07-23T15:06:45;23.30;98.10
52459;DHT22;38372;52.902;6.024;2022-07-23T15:09:11;23.30;97.10
52459;DHT22;38372;52.902;6.024;2022-07-23T15:11:38;23.20;98.10
52459;DHT22;38372;52.902;6.024;2022-07-23T15:14:04;23.00;97.40
52459;DHT22;38372;52.902;6.024;2022-07-23T15:16:30;22.90;97.60
52459;DHT22;38372;52.902;6.024;2022-07-23T15:18:57;22.90;97.50
52459;DHT22;38372;52.902;6.024;2022-07-23T15:21:23;22.80;98.10
52459;DHT22;38372;52.902;6.024;2022-07-23T15:23:49;22.80;98.70
52459;DHT22;38372;52.902;6.024;2022-07-23T15:26:15;22.70;98.00
52459;DHT22;38372;52.902;6.024;2022-07-23T15:28:41;22.60;98.80
52459;DHT22;38372;52.902;6.024;2022-07-23T15:31:08;22.60;98.80
52459;DHT22;38372;52.902;6.024;2022-07-23T15:33:36;22.50;98.10
52459;DHT22;38372;52.902;6.024;2022-07-23T15:36:03;22.50;98.70
52459;DHT22;38372;52.902;6.024;2022-07-23T15:38:29;22.50;99.90
52459;DHT22;38372;52.902;6.024;2022-07-23T15:40:55;22.30;99.90
52459;DHT22;38372;52.902;6.024;2022-07-23T15:43:23;22.30;99.20
52459;DHT22;38372;52.902;6.024;2022-07-23T15:45:50;22.30;98.70
52459;DHT22;38372;52.902;6.024;2022-07-23T15:48:18;22.10;98.30
52459;DHT22;38372;52.902;6.024;2022-07-23T15:50:44;22.10;99.30
52459;DHT22;38372;52.902;6.024;2022-07-23T15:53:10;22.10;99.80
52459;DHT22;38372;52.902;6.024;2022-07-23T15:55:36;22.00;99.40
52459;DHT22;38372;52.902;6.024;2022-07-23T15:58:04;21.90;99.40
52459;DHT22;38372;52.902;6.024;2022-07-23T16:00:30;21.90;98.60
52459;DHT22;38372;52.902;6.024;2022-07-23T16:02:56;21.80;98.50
52459;DHT22;38372;52.902;6.024;2022-07-23T16:05:22;21.80;98.60
52459;DHT22;38372;52.902;6.024;2022-07-23T16:07:57;21.80;98.40
52459;DHT22;38372;52.902;6.024;2022-07-23T16:10:23;21.80;98.50
52459;DHT22;38372;52.902;6.024;2022-07-23T16:12:49;21.80;98.90
52459;DHT22;38372;52.902;6.024;2022-07-23T16:15:15;21.70;99.10
52459;DHT22;38372;52.902;6.024;2022-07-23T16:17:41;21.60;99.70